Time;durP1;ratioP1;P1;durP2;ratioP2;P2;SDS_P1;SDS_P2;PMS_P1;PMS_P2;Temp;Humidity;BMP_temperature;BMP_pressure;BME280_temperature;BME280_humidity;BME280_pressure;Samples;Min_cycle;Max_cycle;Signal;HPM_P1;HPM_P2
2021/04/02 10:33:48;;;;;;;24.83;5.20;;;21.60;66.60;;;;;;5052506;28;20833;-62
2021/04/02 10:36:54;;;;;;;15.98;4.28;;;21.50;67.00;;;;;;5036349;28;20017;-67
2021/04/02 10:40:03;;;;;;;18.02;4.25;;;21.70;66.30;;;;;;5032704;28;20113;-75
2021/04/02 10:42:30;;;;;;;17.50;4.55;;;21.80;64.20;;;;;;5035321;28;20025;-65
2021/04/02 10:45:02;;;;;;;15.18;5.05;;;21.90;63.40;;;;;;5052241;28;20013;-66
2021/04/02 10:47:29;;;;;;;22.10;4.70;;;21.90;63.30;;;;;;5041015;28;20078;-70
2021/04/02 10:50:35;;;;;;;17.80;4.78;;;22.00;63.30;;;;;;5041490;28;20025;-61
2021/04/02 10:53:41;;;;;;;21.08;4.20;;;22.00;62.50;;;;;;5030518;28;20065;-65
2021/04/02 10:56:47;;;;;;;14.25;3.45;;;22.00;62.50;;;;;;5037690;28;20025;-75
2021/04/02 10:59:53;;;;;;;15.68;4.10;;;22.10;62.70;;;;;;5041381;28;20390;-72
2021/04/02 11:02:59;;;;;;;12.77;3.85;;;22.10;62.70;;;;;;5037375;28;20026;-64
2021/04/02 11:05:26;;;;;;;11.48;4.22;;;22.10;62.70;;;;;;5033016;28;20112;-69
2021/04/02 11:07:52;;;;;;;20.75;8.48;;;22.10;62.50;;;;;;5032811;28;20480;-66
2021/04/02 11:10:19;;;;;;;21.35;8.68;;;22.20;62.50;;;;;;5031935;28;20057;-67
2021/04/02 11:13:26;;;;;;;16.98;6.63;;;22.20;62.40;;;;;;5034069;28;20383;-67
2021/04/02 11:16:21;;;;;;;17.77;6.05;;;22.20;62.40;;;;;;5034838;28;20032;-67
2021/04/02 11:18:48;;;;;;;13.77;6.07;;;22.30;63.00;;;;;;5052170;28;20025;-63
2021/04/02 11:21:15;;;;;;;20.42;5.50;;;22.30;62.80;;;;;;5037779;28;20092;-64
2021/04/02 11:23:41;;;;;;;16.77;4.18;;;22.30;62.10;;;;;;5035132;28;20091;-66
2021/04/02 11:26:08;;;;;;;15.68;4.88;;;22.30;62.00;;;;;;5034049;28;20014;-65
2021/04/02 11:28:35;;;;;;;15.38;4.82;;;22.40;62.00;;;;;;5034957;28;20017;-62
2021/04/02 11:31:02;;;;;;;13.63;3.63;;;22.40;61.90;;;;;;5049150;28;20032;-66
2021/04/02 11:33:28;;;;;;;14.23;5.03;;;22.40;61.70;;;;;;5039786;28;20044;-64
2021/04/02 11:35:55;;;;;;;14.10;3.95;;;22.40;61.70;;;;;;5033939;28;20067;-65
2021/04/02 11:38:21;;;;;;;12.05;4.47;;;22.50;61.50;;;;;;5034472;28;20086;-69
2021/04/02 11:40:48;;;;;;;14.13;4.13;;;22.50;61.20;;;;;;5032712;28;20029;-63
2021/04/02 11:43:15;;;;;;;15.38;4.82;;;22.50;61.00;;;;;;5031818;28;20032;-62
2021/04/02 11:45:41;;;;;;;23.55;13.13;;;22.60;60.90;;;;;;5021393;28;20047;-68
2021/04/02 11:48:08;;;;;;;28.27;7.93;;;22.70;60.80;;;;;;5021598;28;20021;-63
2021/04/02 11:50:35;;;;;;;13.48;5.53;;;22.80;60.60;;;;;;5021557;28;20039;-68
2021/04/02 11:53:01;;;;;;;13.00;6.03;;;22.80;60.40;;;;;;5020159;28;20053;-73
2021/04/02 11:55:28;;;;;;;18.35;5.55;;;23.00;60.30;;;;;;5027740;28;20087;-73
2021/04/02 11:58:35;;;;;;;12.02;4.45;;;23.10;60.10;;;;;;5027708;28;20108;-72
2021/04/02 12:01:41;;;;;;;10.43;3.92;;;23.20;59.60;;;;;;5030295;28;20018;-64
2021/04/02 12:04:10;;;;;;;10.20;3.05;;;23.40;59.20;;;;;;5031400;28;20033;-69
2021/04/02 12:06:38;;;;;;;12.98;3.90;;;23.60;58.80;;;;;;5024912;28;20064;-66
2021/04/02 12:09:05;;;;;;;8.65;3.67;;;23.70;58.40;;;;;;5029539;28;20017;-61
2021/04/02 12:11:32;;;;;;;7.78;3.10;;;23.80;58.00;;;;;;5028672;28;20041;-64
2021/04/02 12:13:58;;;;;;;12.18;4.45;;;23.90;57.00;;;;;;5029353;28;20109;-62
2021/04/02 12:16:25;;;;;;;9.32;3.28;;;23.90;56.50;;;;;;5026461;28;20044;-62
2021/04/02 12:18:52;;;;;;;6.50;2.80;;;23.90;56.40;;;;;;5029105;28;20087;-61
2021/04/02 12:21:19;;;;;;;10.10;2.95;;;23.90;56.10;;;;;;5033176;28;20024;-62
2021/04/02 12:23:46;;;;;;;9.27;3.03;;;24.00;56.00;;;;;;5025374;28;20370;-61
2021/04/02 12:26:12;;;;;;;7.43;3.67;;;24.10;55.50;;;;;;5020744;28;20018;-61
2021/04/02 12:28:39;;;;;;;8.80;2.92;;;24.10;55.50;;;;;;5030919;28;20091;-63
2021/04/02 12:31:05;;;;;;;8.95;2.50;;;24.10;55.70;;;;;;5031290;28;20040;-68
2021/04/02 12:33:32;;;;;;;10.95;3.35;;;24.10;55.60;;;;;;5028191;28;20077;-63
2021/04/02 12:35:58;;;;;;;9.82;3.70;;;24.20;55.60;;;;;;5029153;28;20040;-66
2021/04/02 12:38:26;;;;;;;6.43;2.35;;;24.20;55.40;;;;;;5030172;28;20480;-62
2021/04/02 12:40:53;;;;;;;6.25;2.33;;;24.30;55.20;;;;;;5026389;28;20040;-62
2021/04/02 12:43:19;;;;;;;8.35;2.97;;;24.40;54.90;;;;;;5027687;28;20021;-62
2021/04/02 12:45:46;;;;;;;11.25;3.17;;;24.40;54.30;;;;;;5030725;28;20029;-61
2021/04/02 12:48:12;;;;;;;4.88;2.20;;;24.50;54.20;;;;;;5028481;28;20076;-65
2021/04/02 12:50:40;;;;;;;5.32;2.35;;;24.60;53.40;;;;;;5028463;28;20117;-72
2021/04/02 12:53:06;;;;;;;7.45;2.25;;;24.70;53.60;;;;;;5026993;28;20081;-62
2021/04/02 12:55:35;;;;;;;7.82;1.80;;;24.70;53.60;;;;;;5026115;28;20033;-64
2021/04/02 12:58:03;;;;;;;6.88;2.25;;;24.70;53.40;;;;;;5026534;28;20116;-63
2021/04/02 13:00:29;;;;;;;7.30;2.95;;;24.80;53.20;;;;;;5027718;28;20017;-62
2021/04/02 13:02:57;;;;;;;7.28;2.70;;;24.90;53.30;;;;;;5029104;28;20080;-71
2021/04/02 13:05:23;;;;;;;7.85;2.70;;;24.90;53.30;;;;;;5028070;28;20013;-61
2021/04/02 13:07:50;;;;;;;6.40;2.10;;;25.00;53.40;;;;;;5031437;28;20033;-61
2021/04/02 13:10:18;;;;;;;6.47;2.25;;;25.00;53.40;;;;;;5027814;28;20028;-62
2021/04/02 13:12:50;;;;;;;10.63;2.17;;;25.00;53.20;;;;;;5026887;28;20065;-62
2021/04/02 13:15:18;;;;;;;4.43;1.70;;;25.00;53.30;;;;;;5029089;28;20014;-66
2021/04/02 13:17:46;;;;;;;5.55;2.30;;;25.10;53.20;;;;;;5031190;28;20473;-62
2021/04/02 13:20:16;;;;;;;7.65;2.47;;;25.10;53.10;;;;;;5026427;28;20526;-62
2021/04/02 13:22:43;;;;;;;7.13;2.42;;;25.10;53.00;;;;;;5029353;28;20478;-61
2021/04/02 13:25:11;;;;;;;9.13;2.35;;;25.10;53.00;;;;;;5027531;28;20032;-62
2021/04/02 13:27:38;;;;;;;7.68;2.20;;;25.10;53.00;;;;;;5029931;28;20033;-61
2021/04/02 13:30:11;;;;;;;9.70;2.30;;;25.10;53.40;;;;;;5028245;28;20059;-65
2021/04/02 13:32:44;;;;;;;6.80;2.33;;;25.10;52.90;;;;;;5026955;28;20045;-61
2021/04/02 13:35:12;;;;;;;7.75;1.90;;;25.00;53.10;;;;;;5021837;28;20014;-63
2021/04/02 13:37:38;;;;;;;7.03;1.85;;;25.00;53.30;;;;;;5025027;28;20109;-62
2021/04/02 13:40:07;;;;;;;11.90;2.40;;;25.00;53.40;;;;;;5031087;28;20079;-62
2021/04/02 13:42:34;;;;;;;7.28;2.00;;;25.00;53.50;;;;;;5027359;28;20373;-61
2021/04/02 13:45:01;;;;;;;7.53;2.70;;;25.00;53.40;;;;;;5027793;28;20375;-61
2021/04/02 13:47:28;;;;;;;7.15;2.65;;;25.00;53.30;;;;;;5031360;28;20067;-61
2021/04/02 13:49:54;;;;;;;6.57;2.58;;;25.00;53.20;;;;;;5027868;28;20059;-62
2021/04/02 13:52:21;;;;;;;6.32;2.10;;;25.00;53.20;;;;;;5028560;28;20049;-61
2021/04/02 13:54:48;;;;;;;6.70;2.20;;;25.00;53.20;;;;;;5023246;28;20029;-61
2021/04/02 13:57:15;;;;;;;5.93;2.33;;;25.00;53.30;;;;;;5025391;28;20057;-64
2021/04/02 13:59:42;;;;;;;4.32;1.83;;;24.90;53.30;;;;;;5026435;28;20415;-66
2021/04/02 14:02:09;;;;;;;4.63;1.60;;;24.90;53.20;;;;;;5024502;28;20013;-65
2021/04/02 14:04:37;;;;;;;7.93;2.20;;;25.00;53.20;;;;;;5029665;28;20377;-63
2021/04/02 14:07:06;;;;;;;8.40;2.58;;;25.00;53.30;;;;;;5021343;28;20034;-61
2021/04/02 14:09:34;;;;;;;5.28;1.80;;;25.00;53.20;;;;;;5024239;28;20026;-62
2021/04/02 14:12:01;;;;;;;10.02;2.63;;;25.00;53.00;;;;;;5017460;28;20060;-64
2021/04/02 14:14:27;;;;;;;5.40;2.03;;;25.00;53.00;;;;;;5027644;28;20025;-62
2021/04/02 14:16:55;;;;;;;10.82;2.08;;;25.00;53.00;;;;;;5024968;28;20056;-65
2021/04/02 14:19:22;;;;;;;7.40;2.92;;;25.00;53.00;;;;;;5023077;28;20556;-62
2021/04/02 14:21:49;;;;;;;7.65;2.13;;;25.00;53.00;;;;;;5029736;28;20136;-61
2021/04/02 14:24:19;;;;;;;5.43;2.03;;;25.00;53.00;;;;;;5027717;28;20026;-61
2021/04/02 14:26:46;;;;;;;4.78;1.50;;;25.00;53.00;;;;;;5023984;28;20040;-63
2021/04/02 14:29:13;;;;;;;5.60;1.48;;;25.00;52.70;;;;;;5020007;28;20025;-62
2021/04/02 14:31:40;;;;;;;6.60;1.70;;;25.00;52.70;;;;;;5027588;28;20128;-62
2021/04/02 14:34:07;;;;;;;4.50;1.85;;;25.00;52.70;;;;;;5024764;28;20024;-66
2021/04/02 14:36:33;;;;;;;3.58;1.67;;;24.80;52.70;;;;;;5027127;28;20014;-62
2021/04/02 14:39:01;;;;;;;5.88;2.53;;;24.80;52.90;;;;;;5033290;28;20064;-61
2021/04/02 14:41:28;;;;;;;7.68;2.65;;;24.80;53.00;;;;;;5026557;28;20563;-63
2021/04/02 14:43:54;;;;;;;6.10;2.35;;;24.70;53.10;;;;;;5026390;28;20037;-62
2021/04/02 14:46:21;;;;;;;3.58;1.52;;;24.70;53.30;;;;;;5031459;28;20021;-62
2021/04/02 14:48:47;;;;;;;7.43;2.10;;;24.70;53.30;;;;;;5029853;28;20041;-61
2021/04/02 14:51:14;;;;;;;6.70;2.63;;;24.60;53.40;;;;;;5020343;28;20022;-62
2021/04/02 14:53:40;;;;;;;5.88;2.08;;;24.60;53.70;;;;;;5017762;28;20602;-62
2021/04/02 14:56:07;;;;;;;4.43;1.88;;;24.60;53.90;;;;;;5024607;28;20014;-63
2021/04/02 14:58:33;;;;;;;8.30;2.08;;;24.60;53.60;;;;;;5022367;28;20029;-62
2021/04/02 15:01:00;;;;;;;4.68;2.00;;;24.60;53.60;;;;;;5019482;28;20500;-61
2021/04/02 15:03:26;;;;;;;7.30;1.80;;;24.50;53.70;;;;;;5023317;28;20021;-61
2021/04/02 15:05:53;;;;;;;5.82;2.13;;;24.50;53.80;;;;;;5026165;28;20485;-64
2021/04/02 15:08:19;;;;;;;4.10;1.73;;;24.50;53.70;;;;;;5027401;28;20026;-62
2021/04/02 15:10:46;;;;;;;6.85;2.35;;;24.50;54.00;;;;;;5029396;28;20105;-62
2021/04/02 15:13:12;;;;;;;6.38;2.08;;;24.40;54.10;;;;;;5027913;28;20037;-62
2021/04/02 15:15:39;;;;;;;10.02;3.15;;;24.40;54.10;;;;;;5023882;28;20148;-61
2021/04/02 15:18:05;;;;;;;11.93;3.25;;;24.40;54.80;;;;;;5027951;28;20029;-61
2021/04/02 15:20:32;;;;;;;10.07;2.90;;;24.30;54.20;;;;;;5028983;28;20018;-61
2021/04/02 15:22:58;;;;;;;6.50;2.47;;;24.30;54.30;;;;;;5026731;28;20100;-61
2021/04/02 15:25:25;;;;;;;12.40;2.65;;;24.30;54.50;;;;;;5025506;28;20028;-61
2021/04/02 15:27:52;;;;;;;6.07;2.28;;;24.30;54.70;;;;;;5031525;28;20489;-62
2021/04/02 15:30:19;;;;;;;8.60;2.00;;;24.30;54.80;;;;;;5025111;28;20018;-62
2021/04/02 15:32:46;;;;;;;6.78;2.22;;;24.30;54.80;;;;;;5028602;28;20069;-61
2021/04/02 15:35:13;;;;;;;6.88;2.22;;;24.20;54.70;;;;;;5028870;28;20034;-61
2021/04/02 15:37:51;;;;;;;12.70;2.22;;;24.20;54.80;;;;;;5023810;28;20026;-61
2021/04/02 15:40:21;;;;;;;11.85;2.55;;;24.20;55.00;;;;;;5029678;28;20017;-62
2021/04/02 15:42:47;;;;;;;13.10;2.33;;;24.10;55.10;;;;;;5027725;28;20446;-61
2021/04/02 15:45:14;;;;;;;3.33;1.52;;;24.10;55.00;;;;;;5032485;28;20040;-66
2021/04/02 15:47:42;;;;;;;6.93;2.20;;;24.10;55.00;;;;;;5024814;28;20018;-61
2021/04/02 15:50:14;;;;;;;8.15;2.50;;;24.10;55.00;;;;;;5032061;28;20064;-61
2021/04/02 15:52:42;;;;;;;6.25;2.60;;;24.00;55.00;;;;;;5023606;28;20034;-62
2021/04/02 15:55:12;;;;;;;10.75;4.43;;;24.00;55.30;;;;;;5025333;28;20512;-63
2021/04/02 15:57:39;;;;;;;5.90;2.42;;;23.90;55.30;;;;;;5031623;28;20029;-62
2021/04/02 16:00:15;;;;;;;5.40;2.85;;;23.90;55.40;;;;;;5027440;28;20492;-65
2021/04/02 16:02:46;;;;;;;4.85;2.20;;;23.80;55.40;;;;;;5025741;28;20477;-61
2021/04/02 16:05:14;;;;;;;8.32;3.15;;;23.70;55.60;;;;;;5023955;28;20018;-62
2021/04/02 16:07:41;;;;;;;7.15;3.83;;;23.70;55.80;;;;;;5029465;28;20026;-61
2021/04/02 16:10:11;;;;;;;15.05;6.13;;;23.70;56.00;;;;;;5023285;28;20033;-62
2021/04/02 16:12:43;;;;;;;11.82;5.10;;;23.60;56.20;;;;;;5029075;28;20030;-61
2021/04/02 16:15:12;;;;;;;11.18;4.47;;;23.60;56.30;;;;;;5021184;28;20500;-63
2021/04/02 16:17:39;;;;;;;10.50;4.85;;;23.50;56.50;;;;;;5026047;28;20827;-63
2021/04/02 16:20:10;;;;;;;10.60;5.40;;;23.50;56.60;;;;;;5030031;28;20028;-61
2021/04/02 16:22:37;;;;;;;9.52;4.55;;;23.50;56.70;;;;;;5026656;28;20036;-64
2021/04/02 16:25:05;;;;;;;6.28;3.20;;;23.40;56.70;;;;;;5020020;28;20026;-61
2021/04/02 16:27:32;;;;;;;9.27;4.05;;;23.40;56.80;;;;;;5030741;28;20032;-63
2021/04/02 16:30:00;;;;;;;9.73;3.47;;;23.40;56.90;;;;;;5025266;28;20024;-62
2021/04/02 16:32:27;;;;;;;7.55;3.08;;;23.30;57.00;;;;;;5021942;28;20494;-62
2021/04/02 16:34:55;;;;;;;10.32;3.58;;;23.30;57.10;;;;;;5030913;28;20120;-63
2021/04/02 16:37:24;;;;;;;7.45;4.10;;;23.30;57.20;;;;;;5025639;28;20062;-65
2021/04/02 16:39:52;;;;;;;10.25;3.40;;;23.30;57.30;;;;;;5027184;28;20021;-61
2021/04/02 16:42:19;;;;;;;13.77;3.92;;;23.30;57.40;;;;;;5025440;28;20371;-63
2021/04/02 16:44:46;;;;;;;11.07;3.08;;;23.20;57.30;;;;;;5026567;28;20018;-61
2021/04/02 16:47:12;;;;;;;12.18;3.47;;;23.20;57.40;;;;;;5025494;28;20029;-63
2021/04/02 16:49:39;;;;;;;8.23;3.05;;;23.20;57.50;;;;;;5030913;28;20056;-61
2021/04/02 16:52:06;;;;;;;5.00;2.60;;;23.20;57.40;;;;;;5027768;28;20435;-61
2021/04/02 16:54:34;;;;;;;7.25;3.28;;;23.20;57.40;;;;;;5021875;28;20722;-61
2021/04/02 16:57:00;;;;;;;5.50;2.45;;;23.10;57.30;;;;;;5021789;28;20021;-62
2021/04/02 16:59:27;;;;;;;6.63;3.58;;;23.10;57.30;;;;;;5032064;28;20584;-64
2021/04/02 17:01:53;;;;;;;7.30;2.55;;;23.10;57.20;;;;;;5023349;28;20017;-61
2021/04/02 17:04:20;;;;;;;8.18;2.72;;;23.10;57.10;;;;;;5025984;28;20021;-61
2021/04/02 17:06:46;;;;;;;5.30;1.98;;;23.00;57.00;;;;;;5026553;28;20392;-61
2021/04/02 17:09:13;;;;;;;6.30;2.10;;;23.00;57.10;;;;;;5020181;28;20421;-61
2021/04/02 17:11:39;;;;;;;6.13;2.75;;;23.00;57.10;;;;;;5024852;28;20034;-61
2021/04/02 17:14:07;;;;;;;4.82;2.10;;;23.00;57.20;;;;;;5030982;28;20503;-63
2021/04/02 17:16:34;;;;;;;7.68;1.92;;;23.00;57.10;;;;;;5029244;28;20033;-61
2021/04/02 17:19:01;;;;;;;4.90;1.80;;;22.90;57.00;;;;;;5029237;28;20018;-61
2021/04/02 17:21:27;;;;;;;4.25;1.80;;;22.90;57.20;;;;;;5031145;28;20021;-61
2021/04/02 17:23:54;;;;;;;4.78;1.88;;;22.90;57.10;;;;;;5030866;28;20477;-64
2021/04/02 17:26:20;;;;;;;5.18;2.40;;;22.90;57.20;;;;;;5025036;28;20025;-61
2021/04/02 17:28:47;;;;;;;7.65;2.47;;;22.90;57.20;;;;;;5021371;28;20031;-61
2021/04/02 17:31:13;;;;;;;14.32;3.15;;;22.80;57.20;;;;;;5029618;28;20113;-62
2021/04/02 17:33:39;;;;;;;7.93;2.17;;;22.80;57.20;;;;;;5015439;28;20386;-62
2021/04/02 17:36:07;;;;;;;7.72;2.97;;;22.80;57.20;;;;;;5024310;28;20038;-61
2021/04/02 17:38:34;;;;;;;18.92;4.80;;;22.80;57.20;;;;;;5031872;28;20026;-61
2021/04/02 17:41:00;;;;;;;7.63;3.70;;;22.80;57.30;;;;;;5030719;28;20125;-61
2021/04/02 17:43:27;;;;;;;9.10;3.47;;;22.70;57.30;;;;;;5026606;28;20029;-62
2021/04/02 17:45:53;;;;;;;9.45;4.32;;;22.70;57.40;;;;;;5030666;28;20026;-64
2021/04/02 17:48:20;;;;;;;5.55;2.63;;;22.70;57.40;;;;;;5028504;28;20106;-61
2021/04/02 17:50:47;;;;;;;8.10;3.08;;;22.70;57.40;;;;;;5020201;28;20036;-63
2021/04/02 17:53:13;;;;;;;3.88;2.33;;;22.60;57.50;;;;;;5026777;28;20084;-62
2021/04/02 17:56:19;;;;;;;11.05;3.13;;;22.60;57.50;;;;;;5019502;28;20113;-63
2021/04/02 17:59:25;;;;;;;6.85;2.30;;;22.60;57.60;;;;;;5024113;28;20042;-67
2021/04/02 18:02:31;;;;;;;16.25;10.40;;;22.60;57.70;;;;;;5025013;28;20384;-63
2021/04/02 18:05:37;;;;;;;21.13;16.48;;;22.60;57.80;;;;;;5017769;28;20026;-62
2021/04/02 18:08:44;;;;;;;13.38;11.95;;;22.50;57.90;;;;;;5022223;28;20366;-62
2021/04/02 18:11:30;;;;;;;;;;;22.50;58.00;;;;;;5026955;28;20025;-62
2021/04/02 18:14:36;;;;;;;9.05;4.43;;;22.50;58.00;;;;;;5025904;28;19988;-62
2021/04/02 18:17:42;;;;;;;9.68;3.55;;;22.50;58.10;;;;;;5022322;28;20030;-61
2021/04/02 18:20:09;;;;;;;6.55;2.78;;;22.40;58.20;;;;;;5023871;28;20025;-62
2021/04/02 18:22:37;;;;;;;17.23;10.38;;;22.40;58.20;;;;;;5020939;28;20026;-62
2021/04/02 18:25:04;;;;;;;24.15;17.25;;;22.40;58.30;;;;;;5022776;28;20013;-62
2021/04/02 18:27:32;;;;;;;19.42;12.35;;;22.40;58.50;;;;;;5020198;28;20038;-61
2021/04/02 18:29:59;;;;;;;18.02;7.50;;;22.40;59.10;;;;;;5024057;28;20017;-63
2021/04/02 18:32:25;;;;;;;9.18;5.45;;;22.40;58.60;;;;;;5023661;28;20048;-61
2021/04/02 18:34:52;;;;;;;11.73;4.68;;;22.30;58.60;;;;;;5026050;28;20025;-64
2021/04/02 18:37:19;;;;;;;7.40;3.38;;;22.30;58.60;;;;;;5027146;28;20025;-62
2021/04/02 18:39:45;;;;;;;8.48;3.17;;;22.30;58.70;;;;;;5024036;28;20032;-62
2021/04/02 18:42:12;;;;;;;7.63;2.63;;;22.30;58.70;;;;;;5024737;28;20492;-62
2021/04/02 18:44:38;;;;;;;6.78;2.00;;;22.20;58.70;;;;;;5024287;28;20039;-62
2021/04/02 18:47:05;;;;;;;7.57;2.40;;;22.20;58.80;;;;;;5023835;28;20009;-62
2021/04/02 18:49:32;;;;;;;7.07;2.35;;;22.30;58.90;;;;;;5023351;28;20390;-62
2021/04/02 18:51:59;;;;;;;7.97;2.50;;;22.20;58.90;;;;;;5018567;28;20038;-62
2021/04/02 18:54:27;;;;;;;9.23;2.38;;;22.20;58.90;;;;;;5027599;28;20028;-62
2021/04/02 18:56:55;;;;;;;9.25;2.90;;;22.20;59.00;;;;;;5025699;28;20041;-61
2021/04/02 18:59:22;;;;;;;8.68;3.88;;;22.20;59.10;;;;;;5027188;28;20103;-62
2021/04/02 19:01:49;;;;;;;6.55;2.53;;;22.20;59.10;;;;;;5029508;28;20061;-62
2021/04/02 19:04:16;;;;;;;6.30;2.03;;;22.20;59.20;;;;;;5028562;28;20030;-62
2021/04/02 19:06:42;;;;;;;9.43;2.42;;;22.20;59.30;;;;;;5027751;28;20038;-62
2021/04/02 19:09:09;;;;;;;9.80;3.75;;;22.20;59.30;;;;;;5028929;28;20025;-62
2021/04/02 19:11:37;;;;;;;9.27;3.45;;;22.20;59.40;;;;;;5028810;28;20499;-62
2021/04/02 19:14:09;;;;;;;7.88;3.00;;;22.10;59.40;;;;;;5024405;28;20076;-61
2021/04/02 19:16:36;;;;;;;12.50;8.63;;;22.10;59.50;;;;;;5027368;28;20045;-63
2021/04/02 19:19:03;;;;;;;19.55;11.68;;;22.10;59.50;;;;;;5025465;28;20530;-62
2021/04/02 19:21:30;;;;;;;16.98;9.88;;;22.10;59.50;;;;;;5024974;28;20642;-61
2021/04/02 19:23:56;;;;;;;11.75;7.72;;;22.10;59.50;;;;;;5031072;28;20025;-62
2021/04/02 19:26:23;;;;;;;12.40;5.90;;;22.10;59.60;;;;;;5029145;28;20481;-62
2021/04/02 19:28:50;;;;;;;9.40;4.13;;;22.10;59.60;;;;;;5031383;28;20053;-62
2021/04/02 19:31:16;;;;;;;9.88;4.45;;;22.10;59.60;;;;;;5026012;28;20030;-62
2021/04/02 19:33:43;;;;;;;6.75;4.18;;;22.10;59.60;;;;;;5026191;28;20042;-62
2021/04/02 19:36:10;;;;;;;9.18;4.78;;;22.10;59.70;;;;;;5026363;28;20033;-62
2021/04/02 19:38:41;;;;;;;14.73;5.55;;;22.10;59.70;;;;;;5023736;28;20025;-62
2021/04/02 19:41:47;;;;;;;5.53;3.45;;;22.00;59.80;;;;;;5029813;28;20025;-62
2021/04/02 19:44:53;;;;;;;16.20;5.45;;;22.00;59.80;;;;;;5028376;28;20092;-62
2021/04/02 19:47:59;;;;;;;8.45;4.20;;;22.00;59.80;;;;;;5026106;28;20045;-63
2021/04/02 19:51:05;;;;;;;6.95;3.75;;;22.00;59.90;;;;;;5029792;28;20108;-65
2021/04/02 19:54:11;;;;;;;9.23;3.22;;;22.00;60.00;;;;;;5026828;28;20508;-62
2021/04/02 19:56:58;;;;;;;;;;;22.00;60.10;;;;;;5026895;28;20030;-63
2021/04/02 20:00:04;;;;;;;10.98;3.42;;;21.90;60.10;;;;;;5028146;28;19916;-66
2021/04/02 20:03:10;;;;;;;7.95;3.72;;;21.90;60.10;;;;;;5025846;28;20033;-62
2021/04/02 20:06:17;;;;;;;9.68;2.55;;;21.90;60.20;;;;;;5026393;28;20480;-63
2021/04/02 20:09:03;;;;;;;;;;;21.90;60.30;;;;;;5026068;28;20032;-64
2021/04/02 20:12:09;;;;;;;7.70;3.25;;;21.90;60.40;;;;;;5028269;28;19959;-62
2021/04/02 20:15:17;;;;;;;8.27;4.85;;;21.90;60.40;;;;;;5027601;28;20042;-64
2021/04/02 20:18:23;;;;;;;13.82;5.57;;;21.90;60.40;;;;;;5021991;28;20060;-62
2021/04/02 20:21:29;;;;;;;9.70;4.55;;;21.90;60.50;;;;;;5029944;28;20037;-64
2021/04/02 20:24:35;;;;;;;9.35;3.97;;;21.80;60.50;;;;;;5022520;28;20054;-64
2021/04/02 20:27:26;;;;;;;7.45;3.70;;;21.80;60.60;;;;;;5036832;28;20041;-62
2021/04/02 20:29:58;;;;;;;10.95;3.72;;;21.80;60.70;;;;;;5025542;28;20029;-63
2021/04/02 20:32:30;;;;;;;10.23;4.43;;;21.80;60.70;;;;;;5024133;28;20084;-62
2021/04/02 20:34:57;;;;;;;10.25;4.60;;;21.80;60.80;;;;;;5024608;28;20097;-62
2021/04/02 20:37:24;;;;;;;8.02;2.83;;;21.80;60.80;;;;;;5030448;28;20021;-62
2021/04/02 20:39:51;;;;;;;10.55;3.17;;;21.80;60.90;;;;;;5025837;28;20548;-62
2021/04/02 20:42:18;;;;;;;8.50;2.90;;;21.80;60.90;;;;;;5027234;28;20400;-63
2021/04/02 20:44:44;;;;;;;10.90;2.83;;;21.80;60.90;;;;;;5027252;28;20013;-62
2021/04/02 20:47:11;;;;;;;9.75;2.67;;;21.70;61.00;;;;;;5027419;28;20022;-63
2021/04/02 20:49:38;;;;;;;12.25;3.13;;;21.70;60.90;;;;;;5023664;28;20103;-63
2021/04/02 20:52:05;;;;;;;5.80;2.70;;;21.70;60.90;;;;;;5025636;28;20401;-64
2021/04/02 20:54:32;;;;;;;7.75;2.92;;;21.70;61.00;;;;;;5023308;28;20030;-65
2021/04/02 20:56:59;;;;;;;15.30;3.50;;;21.70;61.00;;;;;;5025858;28;20423;-63
2021/04/02 20:59:25;;;;;;;10.50;2.65;;;21.70;61.00;;;;;;5031304;28;20096;-64
2021/04/02 21:01:52;;;;;;;8.07;2.67;;;21.70;61.70;;;;;;5024278;28;20025;-62
2021/04/02 21:04:19;;;;;;;9.85;3.33;;;21.70;61.10;;;;;;5025874;28;20009;-62
2021/04/02 21:06:46;;;;;;;8.95;3.45;;;21.60;61.00;;;;;;5024850;28;20033;-62
2021/04/02 21:09:13;;;;;;;7.63;3.13;;;21.70;61.00;;;;;;5025451;28;20052;-63
2021/04/02 21:11:40;;;;;;;7.40;2.60;;;21.60;61.00;;;;;;5024286;28;20032;-62
2021/04/02 21:14:08;;;;;;;8.38;3.33;;;21.60;61.00;;;;;;5024552;28;20096;-62
2021/04/02 21:16:34;;;;;;;10.52;3.08;;;21.60;61.00;;;;;;5027264;28;20029;-66
2021/04/02 21:19:01;;;;;;;11.65;3.15;;;21.60;61.00;;;;;;5023319;28;20052;-68
2021/04/02 21:21:27;;;;;;;6.97;3.20;;;21.60;61.10;;;;;;5029063;28;20017;-62
2021/04/02 21:23:54;;;;;;;9.43;3.97;;;21.60;61.10;;;;;;5023148;28;20523;-62
2021/04/02 21:26:21;;;;;;;6.40;2.80;;;21.50;61.10;;;;;;5025839;28;20025;-62
2021/04/02 21:28:47;;;;;;;7.45;3.28;;;21.60;61.10;;;;;;5027148;28;20026;-63
2021/04/02 21:31:14;;;;;;;9.73;3.47;;;21.50;61.00;;;;;;5023272;28;20500;-65
2021/04/02 21:33:40;;;;;;;8.32;2.72;;;21.50;61.00;;;;;;5023350;28;20049;-62
2021/04/02 21:36:07;;;;;;;6.18;1.98;;;21.50;61.00;;;;;;5022118;28;20026;-64
2021/04/02 21:38:34;;;;;;;8.80;2.47;;;21.50;61.00;;;;;;5025694;28;20022;-62
2021/04/02 21:41:00;;;;;;;7.60;2.50;;;21.50;61.00;;;;;;5019962;28;20034;-61
2021/04/02 21:43:27;;;;;;;6.68;2.70;;;21.50;61.00;;;;;;5021707;28;20983;-63
2021/04/02 21:45:53;;;;;;;10.93;3.33;;;21.50;61.00;;;;;;5027644;28;20025;-61
2021/04/02 21:48:20;;;;;;;9.20;3.25;;;21.50;60.90;;;;;;5023197;28;20075;-61
2021/04/02 21:50:46;;;;;;;7.72;2.50;;;21.50;61.00;;;;;;5025157;28;20029;-61
2021/04/02 21:53:13;;;;;;;5.75;2.38;;;21.50;61.00;;;;;;5024930;28;20029;-61
2021/04/02 21:55:40;;;;;;;9.35;3.85;;;21.40;61.00;;;;;;5025167;28;20080;-64
2021/04/02 21:58:09;;;;;;;9.50;2.55;;;21.40;61.00;;;;;;5023664;28;20071;-62
2021/04/02 22:00:36;;;;;;;5.50;2.25;;;21.40;61.00;;;;;;5032713;28;20372;-62
2021/04/02 22:03:02;;;;;;;6.43;2.58;;;21.50;61.10;;;;;;5024706;28;20037;-61
2021/04/02 22:05:29;;;;;;;6.28;3.05;;;21.40;61.00;;;;;;5021496;28;20010;-61
2021/04/02 22:07:55;;;;;;;10.30;2.60;;;21.40;61.10;;;;;;5024775;28;20033;-61
2021/04/02 22:10:28;;;;;;;8.68;2.60;;;21.40;61.00;;;;;;5026995;28;20067;-63
2021/04/02 22:12:56;;;;;;;8.50;3.08;;;21.40;61.10;;;;;;5021711;28;20067;-61
2021/04/02 22:15:23;;;;;;;8.38;2.88;;;21.40;61.10;;;;;;5029264;28;20101;-61
2021/04/02 22:17:53;;;;;;;9.00;2.53;;;21.40;61.10;;;;;;5025609;28;20492;-62
2021/04/02 22:20:22;;;;;;;5.78;2.20;;;21.40;61.10;;;;;;5025138;28;20018;-61
2021/04/02 22:22:51;;;;;;;5.63;2.95;;;21.40;61.10;;;;;;5025207;28;20432;-68
2021/04/02 22:25:22;;;;;;;8.48;2.20;;;21.30;61.10;;;;;;5030132;28;20013;-62
2021/04/02 22:27:50;;;;;;;5.63;2.45;;;21.30;61.10;;;;;;5021406;28;20017;-63
2021/04/02 22:30:18;;;;;;;8.18;3.22;;;21.30;61.10;;;;;;5024087;28;20071;-62
2021/04/02 22:32:44;;;;;;;10.98;2.65;;;21.30;61.10;;;;;;5023651;28;20065;-64
2021/04/02 22:35:14;;;;;;;5.07;2.83;;;21.30;61.10;;;;;;5024833;28;20018;-66
2021/04/02 22:37:41;;;;;;;9.27;3.10;;;21.30;61.10;;;;;;5026110;28;20492;-62
2021/04/02 22:40:12;;;;;;;9.80;4.47;;;21.30;61.10;;;;;;5028875;28;20048;-68
2021/04/02 22:42:39;;;;;;;8.13;4.20;;;21.20;61.00;;;;;;5024227;28;20018;-65
2021/04/02 22:45:46;;;;;;;9.80;2.20;;;21.20;61.00;;;;;;5023801;28;20464;-61
2021/04/02 22:48:52;;;;;;;8.93;2.30;;;21.20;61.00;;;;;;5028153;28;20013;-62
2021/04/02 22:51:58;;;;;;;4.85;1.92;;;21.20;61.70;;;;;;5021692;28;20076;-62
2021/04/02 22:55:04;;;;;;;9.93;2.78;;;21.20;61.00;;;;;;5026000;28;20045;-61
2021/04/02 22:58:10;;;;;;;6.63;2.15;;;21.20;61.00;;;;;;5020785;28;20584;-63
2021/04/02 23:01:17;;;;;;;5.95;2.70;;;21.20;61.00;;;;;;5024019;28;20064;-61
2021/04/02 23:04:23;;;;;;;7.28;3.15;;;21.20;61.10;;;;;;5025359;28;20044;-61
2021/04/02 23:07:29;;;;;;;7.68;2.20;;;21.20;61.30;;;;;;5019407;28;20024;-61
2021/04/02 23:10:35;;;;;;;5.20;1.75;;;21.20;61.00;;;;;;5022568;28;20028;-63
2021/04/02 23:13:41;;;;;;;7.75;3.67;;;21.10;61.00;;;;;;5026435;28;20045;-61
2021/04/02 23:16:47;;;;;;;6.70;2.25;;;21.10;61.00;;;;;;5023233;28;20049;-64
2021/04/02 23:19:53;;;;;;;10.18;2.63;;;21.10;61.00;;;;;;5026562;28;20026;-61
2021/04/02 23:22:59;;;;;;;8.95;2.90;;;21.10;61.00;;;;;;5021646;28;20026;-61
2021/04/02 23:26:05;;;;;;;11.60;2.70;;;21.10;61.00;;;;;;5027393;28;20032;-61
2021/04/02 23:29:11;;;;;;;12.52;2.63;;;21.10;61.00;;;;;;5021418;28;20024;-61
2021/04/02 23:32:17;;;;;;;4.75;1.40;;;21.00;61.00;;;;;;5024815;28;20032;-62
2021/04/02 23:35:24;;;;;;;8.20;2.20;;;21.00;61.10;;;;;;5024971;28;20495;-68
2021/04/02 23:38:30;;;;;;;6.50;2.45;;;21.00;61.10;;;;;;5023057;28;20025;-61
2021/04/02 23:41:16;;;;;;;;;;;21.00;61.10;;;;;;5024242;28;20033;-62
2021/04/02 23:44:22;;;;;;;7.40;2.42;;;21.00;61.10;;;;;;5026838;28;19947;-61
2021/04/02 23:47:28;;;;;;;11.32;2.30;;;21.00;61.10;;;;;;5029352;28;20516;-60
2021/04/02 23:50:34;;;;;;;7.88;2.10;;;21.00;61.10;;;;;;5027462;28;20059;-62
2021/04/02 23:53:40;;;;;;;5.15;2.42;;;21.00;61.20;;;;;;5026646;28;20029;-62